Time;durP1;ratioP1;P1;durP2;ratioP2;P2;SDS_P1;SDS_P2;PMS_P1;PMS_P2;Temp;Humidity;BMP_temperature;BMP_pressure;BME280_temperature;BME280_humidity;BME280_pressure;Samples;Min_cycle;Max_cycle;Signal;HPM_P1;HPM_P2
2023/12/11 00:01:02;;;;;;;1067.78;941.35;;;8.60;99.90;;;;;;5069355;28;20039;-83
2023/12/11 00:03:27;;;;;;;906.45;819.00;;;8.60;99.90;;;;;;5051522;28;20416;-82
2023/12/11 00:05:53;;;;;;;964.55;861.03;;;8.50;99.90;;;;;;5062825;28;20115;-83
2023/12/11 00:08:19;;;;;;;997.53;882.65;;;8.40;99.90;;;;;;5068034;28;20029;-83
2023/12/11 00:10:44;;;;;;;997.35;890.72;;;8.30;99.90;;;;;;5070937;28;20036;-83
2023/12/11 00:13:13;;;;;;;985.45;880.03;;;8.30;99.90;;;;;;5071256;28;20037;-82
2023/12/11 00:15:39;;;;;;;1002.53;884.75;;;8.30;99.90;;;;;;5063615;28;20032;-83
2023/12/11 00:18:05;;;;;;;1009.17;897.70;;;8.20;99.90;;;;;;5068244;28;20372;-83
2023/12/11 00:20:31;;;;;;;1027.10;908.35;;;8.10;99.90;;;;;;5054989;28;20048;-83
2023/12/11 00:22:57;;;;;;;947.85;851.08;;;8.10;99.90;;;;;;5052535;28;20507;-82
2023/12/11 00:25:31;;;;;;;934.53;841.45;;;8.10;99.90;;;;;;5068370;28;20039;-83
2023/12/11 00:27:57;;;;;;;1006.28;896.78;;;8.10;99.90;;;;;;5051086;28;20634;-83
2023/12/11 00:30:23;;;;;;;978.03;877.13;;;8.20;99.90;;;;;;5067897;28;20039;-83
2023/12/11 00:32:48;;;;;;;987.50;884.05;;;8.10;99.90;;;;;;5055607;28;20037;-83
2023/12/11 00:35:14;;;;;;;959.10;861.85;;;8.10;99.90;;;;;;5068378;28;20037;-83
2023/12/11 00:37:40;;;;;;;946.15;851.55;;;8.10;99.90;;;;;;5053306;28;20093;-83
2023/12/11 00:40:07;;;;;;;980.00;877.85;;;8.10;99.90;;;;;;5067194;28;20072;-84
2023/12/11 00:42:32;;;;;;;958.42;863.17;;;8.10;99.90;;;;;;5054387;28;20068;-83
2023/12/11 00:44:58;;;;;;;913.55;824.95;;;8.10;99.90;;;;;;5068057;28;20025;-83
2023/12/11 00:47:24;;;;;;;951.42;859.78;;;8.10;99.90;;;;;;5071280;28;20500;-83
2023/12/11 00:49:49;;;;;;;988.63;884.28;;;8.10;99.90;;;;;;5068613;28;20037;-83
2023/12/11 00:52:17;;;;;;;996.72;891.30;;;8.10;99.90;;;;;;5067334;28;20080;-83
2023/12/11 00:54:42;;;;;;;973.83;870.95;;;8.10;99.90;;;;;;5068749;28;20656;-83
2023/12/11 00:57:11;;;;;;;944.47;850.58;;;8.10;99.90;;;;;;5070907;28;20036;-83
2023/12/11 00:59:38;;;;;;;1296.63;979.17;;;8.10;99.90;;;;;;5050384;28;20032;-83
2023/12/11 01:02:04;;;;;;;970.70;871.88;;;8.10;99.90;;;;;;5034468;28;20041;-84
2023/12/11 01:04:30;;;;;;;935.17;845.58;;;8.20;99.90;;;;;;5051481;28;20455;-83
2023/12/11 01:06:55;;;;;;;989.05;882.65;;;8.10;99.90;;;;;;5054715;28;20037;-83
2023/12/11 01:09:21;;;;;;;1035.57;908.85;;;8.20;99.90;;;;;;5068273;28;20503;-83
2023/12/11 01:11:47;;;;;;;947.20;855.15;;;8.20;99.90;;;;;;5057569;28;20055;-83
2023/12/11 01:14:13;;;;;;;976.47;876.95;;;7.90;99.90;;;;;;5071502;28;20065;-82
2023/12/11 01:16:38;;;;;;;949.58;854.10;;;8.20;99.90;;;;;;5058953;28;20043;-83
2023/12/11 01:19:04;;;;;;;1022.33;902.53;;;8.20;99.90;;;;;;5058474;28;20067;-83
2023/12/11 01:21:30;;;;;;;983.13;881.95;;;8.20;99.90;;;;;;5056050;28;20045;-82
2023/12/11 01:23:55;;;;;;;959.70;863.45;;;8.20;99.90;;;;;;5076676;28;20062;-83
2023/12/11 01:26:21;;;;;;;978.50;880.17;;;8.20;99.90;;;;;;5057613;28;20084;-82
2023/12/11 01:28:48;;;;;;;1030.32;908.25;;;8.20;99.90;;;;;;5054323;28;20175;-82
2023/12/11 01:31:14;;;;;;;966.63;864.15;;;8.20;99.90;;;;;;5073175;28;20041;-83
2023/12/11 01:33:40;;;;;;;973.97;872.05;;;8.20;99.90;;;;;;5076375;28;20139;-84
2023/12/11 01:36:06;;;;;;;935.03;842.88;;;8.20;99.90;;;;;;5070048;28;20486;-83
2023/12/11 01:38:31;;;;;;;989.15;885.75;;;8.20;99.90;;;;;;5077950;28;20040;-82
2023/12/11 01:40:57;;;;;;;978.50;878.38;;;8.20;99.90;;;;;;5057450;28;20068;-83
2023/12/11 01:43:24;;;;;;;1039.32;919.15;;;8.20;99.90;;;;;;5076084;28;20037;-83
2023/12/11 01:46:12;;;;;;;954.38;860.15;;;8.30;99.90;;;;;;5061901;28;20032;-83
2023/12/11 01:48:39;;;;;;;969.55;871.03;;;8.20;99.90;;;;;;5088858;28;20032;-83
2023/12/11 01:51:08;;;;;;;941.08;848.90;;;8.20;99.90;;;;;;5081829;28;20062;-82
2023/12/11 01:53:34;;;;;;;971.40;870.17;;;8.20;99.90;;;;;;5064474;28;20041;-82
2023/12/11 01:56:00;;;;;;;968.78;865.47;;;8.30;99.90;;;;;;5056436;28;20634;-83
2023/12/11 01:58:29;;;;;;;1036.00;920.35;;;8.30;99.90;;;;;;5060267;28;20108;-83
2023/12/11 02:00:55;;;;;;;953.25;853.20;;;8.30;99.90;;;;;;5040387;28;20044;-83
2023/12/11 02:03:22;;;;;;;1000.40;892.80;;;8.30;99.90;;;;;;5075953;28;20511;-82
2023/12/11 02:05:49;;;;;;;998.50;889.78;;;8.30;99.90;;;;;;5069940;28;20032;-82
2023/12/11 02:08:18;;;;;;;1005.25;897.10;;;8.40;99.90;;;;;;5057212;28;20032;-82
2023/12/11 02:10:44;;;;;;;1151.20;953.85;;;8.40;99.90;;;;;;5086464;28;20127;-82
2023/12/11 02:13:10;;;;;;;1017.75;901.35;;;8.40;99.90;;;;;;5051871;28;20048;-82
2023/12/11 02:15:44;;;;;;;976.92;873.40;;;8.40;99.90;;;;;;5086863;28;20045;-83
2023/12/11 02:18:14;;;;;;;939.42;848.92;;;8.50;99.90;;;;;;5073629;28;20086;-83
2023/12/11 02:20:40;;;;;;;1216.55;964.47;;;8.50;99.90;;;;;;5052419;28;20064;-82
2023/12/11 02:23:33;;;;;;;1233.43;953.42;;;8.50;99.90;;;;;;5056203;28;20029;-82
2023/12/11 02:26:10;;;;;;;925.85;830.45;;;8.60;99.90;;;;;;5053978;28;20052;-83
2023/12/11 02:28:36;;;;;;;1018.30;891.42;;;8.50;99.90;;;;;;5054657;28;20044;-82
2023/12/11 02:31:02;;;;;;;1108.55;928.00;;;8.60;99.90;;;;;;5070455;28;20184;-82
2023/12/11 02:33:29;;;;;;;1192.05;929.92;;;8.60;99.90;;;;;;5055907;28;20064;-83
2023/12/11 02:36:00;;;;;;;1075.65;898.20;;;8.60;99.90;;;;;;5068316;28;20072;-83
2023/12/11 02:38:26;;;;;;;1179.20;942.88;;;8.60;99.90;;;;;;5068953;28;20040;-83
2023/12/11 02:40:52;;;;;;;1065.60;902.10;;;8.60;99.90;;;;;;5065070;28;20043;-83
2023/12/11 02:43:17;;;;;;;975.10;865.72;;;8.60;99.90;;;;;;5052512;28;20033;-83
2023/12/11 02:45:44;;;;;;;1122.90;904.60;;;8.60;99.90;;;;;;5067574;28;20037;-83
2023/12/11 02:48:10;;;;;;;1197.13;963.33;;;8.60;99.90;;;;;;5089518;28;20121;-83
2023/12/11 02:50:39;;;;;;;1181.07;953.95;;;8.60;99.90;;;;;;5037094;28;20586;-83
2023/12/11 02:53:05;;;;;;;952.97;857.20;;;8.60;99.90;;;;;;5055969;28;20040;-83
2023/12/11 02:55:31;;;;;;;969.13;864.05;;;8.60;99.90;;;;;;5076638;28;20032;-83
2023/12/11 02:57:58;;;;;;;1187.40;954.13;;;8.60;99.90;;;;;;5072713;28;20037;-83
2023/12/11 03:00:25;;;;;;;1063.75;904.70;;;8.60;99.90;;;;;;5065488;28;20101;-83
2023/12/11 03:02:51;;;;;;;1144.90;930.83;;;8.60;99.90;;;;;;5055628;28;20048;-82
2023/12/11 03:05:16;;;;;;;1214.95;951.60;;;8.60;99.90;;;;;;5070283;28;20090;-83
2023/12/11 03:07:42;;;;;;;956.53;855.85;;;8.60;99.90;;;;;;5050933;28;20048;-82
2023/12/11 03:10:08;;;;;;;951.47;853.28;;;8.60;99.90;;;;;;5068607;28;20036;-82
2023/12/11 03:12:34;;;;;;;1196.22;938.38;;;8.60;99.90;;;;;;5076949;28;20048;-82
2023/12/11 03:15:02;;;;;;;988.92;883.78;;;8.60;99.90;;;;;;5052073;28;20497;-82
2023/12/11 03:17:27;;;;;;;1198.97;932.45;;;8.60;99.90;;;;;;5049222;28;20587;-83
2023/12/11 03:19:53;;;;;;;947.53;848.55;;;8.60;99.90;;;;;;5055439;28;20037;-82
2023/12/11 03:22:19;;;;;;;1030.43;903.67;;;8.60;99.90;;;;;;5039983;28;20143;-82
2023/12/11 03:24:46;;;;;;;1142.90;940.65;;;8.50;99.90;;;;;;5054747;28;20033;-83
2023/12/11 03:27:12;;;;;;;1041.07;908.00;;;8.50;99.90;;;;;;5061116;28;20040;-82
2023/12/11 03:29:38;;;;;;;1037.55;906.50;;;8.60;99.90;;;;;;5073548;28;20425;-82
2023/12/11 03:32:03;;;;;;;985.40;878.05;;;8.60;99.90;;;;;;5074397;28;20070;-82
2023/12/11 03:34:29;;;;;;;1049.13;903.85;;;8.50;99.90;;;;;;5071951;28;20044;-82
2023/12/11 03:36:55;;;;;;;1074.70;915.67;;;8.50;99.90;;;;;;5074461;28;20032;-82
2023/12/11 03:39:20;;;;;;;1008.60;888.85;;;8.60;99.90;;;;;;5073652;28;20071;-82
2023/12/11 03:41:48;;;;;;;988.60;876.63;;;8.60;99.90;;;;;;5061022;28;20325;-82
2023/12/11 03:44:13;;;;;;;1174.57;946.45;;;8.60;99.90;;;;;;5075363;28;20036;-82
2023/12/11 03:46:39;;;;;;;1080.35;914.08;;;8.60;99.90;;;;;;5056267;28;20055;-83
2023/12/11 03:49:05;;;;;;;1213.15;951.30;;;8.60;99.90;;;;;;5083072;28;20033;-82
2023/12/11 03:51:30;;;;;;;1126.07;918.28;;;8.60;99.90;;;;;;5085333;28;20056;-83
2023/12/11 03:53:56;;;;;;;1219.78;948.67;;;8.60;99.90;;;;;;5067307;28;20107;-83
2023/12/11 03:56:22;;;;;;;1065.82;906.65;;;8.60;99.90;;;;;;5049216;28;20075;-83
2023/12/11 03:58:47;;;;;;;1097.88;925.10;;;8.60;99.90;;;;;;5068735;28;20056;-83
2023/12/11 04:01:13;;;;;;;1085.90;936.58;;;8.60;99.90;;;;;;5053439;28;20633;-83
2023/12/11 04:03:39;;;;;;;1110.78;921.55;;;8.70;99.90;;;;;;5066817;28;20037;-83
2023/12/11 04:06:04;;;;;;;1368.25;980.58;;;8.70;99.90;;;;;;5072760;28;20041;-82
2023/12/11 04:08:31;;;;;;;1303.93;974.90;;;8.60;99.90;;;;;;5069100;28;20049;-83
2023/12/11 04:11:00;;;;;;;1080.35;927.17;;;8.60;99.90;;;;;;5069550;28;20033;-82
2023/12/11 04:13:25;;;;;;;1196.05;959.78;;;8.60;99.90;;;;;;5057741;28;20047;-82
2023/12/11 04:15:51;;;;;;;1210.85;950.75;;;8.60;99.90;;;;;;5069817;28;20096;-82
2023/12/11 04:18:17;;;;;;;1016.33;886.45;;;8.70;99.90;;;;;;5072162;28;20057;-84
2023/12/11 04:20:42;;;;;;;1167.45;943.80;;;8.70;99.90;;;;;;5067698;28;20037;-82
2023/12/11 04:23:08;;;;;;;1165.03;944.28;;;8.70;99.90;;;;;;5074755;28;20036;-83
2023/12/11 04:25:34;;;;;;;1121.72;929.05;;;8.70;99.90;;;;;;5050219;28;20053;-82
2023/12/11 04:27:59;;;;;;;1239.47;957.55;;;8.70;99.90;;;;;;5054072;28;20064;-82
2023/12/11 04:30:25;;;;;;;998.72;881.15;;;8.70;99.90;;;;;;5067928;28;20041;-82
2023/12/11 04:32:51;;;;;;;1139.65;934.13;;;8.70;99.90;;;;;;5047744;28;20067;-82
2023/12/11 04:35:17;;;;;;;1125.10;929.72;;;8.70;99.90;;;;;;5050983;28;20063;-82
2023/12/11 04:37:42;;;;;;;1069.25;914.78;;;8.80;99.90;;;;;;5055146;28;20136;-83
2023/12/11 04:40:08;;;;;;;1090.07;924.47;;;8.80;99.90;;;;;;5057812;28;20040;-82
2023/12/11 04:42:34;;;;;;;1319.90;974.13;;;8.80;99.90;;;;;;5065510;28;20041;-82
2023/12/11 04:45:00;;;;;;;1128.03;929.47;;;8.80;99.90;;;;;;5069870;28;20043;-82
2023/12/11 04:47:25;;;;;;;1065.68;915.42;;;8.80;99.90;;;;;;5076952;28;20066;-83
2023/12/11 04:49:51;;;;;;;973.22;870.63;;;8.80;99.90;;;;;;5076046;28;20037;-83
2023/12/11 04:52:17;;;;;;;1058.28;922.03;;;8.70;99.90;;;;;;5057415;28;20116;-83
2023/12/11 04:54:43;;;;;;;1214.03;959.75;;;8.80;99.90;;;;;;5061897;28;20128;-84
2023/12/11 04:57:11;;;;;;;1159.22;942.45;;;8.80;99.90;;;;;;5074552;28;20044;-83
2023/12/11 04:59:37;;;;;;;1051.63;926.70;;;8.80;99.90;;;;;;5058521;28;20045;-82
2023/12/11 05:02:04;;;;;;;996.70;887.33;;;8.80;99.90;;;;;;5061566;28;20100;-83
2023/12/11 05:04:30;;;;;;;1104.88;930.70;;;8.80;99.90;;;;;;5058994;28;20029;-83
2023/12/11 05:06:55;;;;;;;1129.88;930.63;;;8.80;99.90;;;;;;5033814;28;20047;-82
2023/12/11 05:09:22;;;;;;;1128.03;937.03;;;8.80;99.90;;;;;;5074515;28;20024;-82
2023/12/11 05:11:48;;;;;;;1125.80;937.53;;;8.80;99.90;;;;;;5072503;28;20098;-82
2023/12/11 05:14:13;;;;;;;1197.97;962.15;;;8.80;99.90;;;;;;5052432;28;20045;-82
2023/12/11 05:16:39;;;;;;;1094.75;923.30;;;8.80;99.90;;;;;;5075496;28;20047;-82
2023/12/11 05:19:05;;;;;;;1300.07;982.40;;;8.80;99.90;;;;;;5062251;28;20048;-82
2023/12/11 05:21:31;;;;;;;1120.75;939.28;;;8.80;99.90;;;;;;5055288;28;20109;-83
2023/12/11 05:23:59;;;;;;;1074.72;933.05;;;8.80;99.90;;;;;;5076417;28;20568;-83
2023/12/11 05:26:26;;;;;;;1151.47;948.08;;;8.80;99.90;;;;;;5057194;28;20033;-83
2023/12/11 05:28:54;;;;;;;1107.00;936.15;;;8.80;99.90;;;;;;5058763;28;20071;-83
2023/12/11 05:31:21;;;;;;;1100.57;937.35;;;8.80;99.90;;;;;;5055666;28;20037;-83
2023/12/11 05:33:46;;;;;;;1197.07;952.97;;;8.80;99.90;;;;;;5078232;28;20044;-83
2023/12/11 05:36:12;;;;;;;1175.57;934.72;;;8.80;99.90;;;;;;5073703;28;20041;-83
2023/12/11 05:38:38;;;;;;;1077.07;917.38;;;8.80;99.90;;;;;;5072961;28;20033;-83
2023/12/11 05:41:04;;;;;;;998.97;888.63;;;8.80;99.90;;;;;;5065010;28;20373;-83
2023/12/11 05:43:29;;;;;;;1054.03;910.60;;;8.80;99.90;;;;;;5055601;28;20039;-83
2023/12/11 05:45:55;;;;;;;1009.53;894.97;;;8.80;99.90;;;;;;5060638;28;20396;-83
2023/12/11 05:48:21;;;;;;;1108.90;942.97;;;8.80;99.90;;;;;;5080240;28;20037;-82
2023/12/11 05:50:47;;;;;;;1008.17;899.25;;;8.80;99.90;;;;;;5091045;28;20055;-83
2023/12/11 05:53:12;;;;;;;1032.43;910.80;;;8.80;99.90;;;;;;5070800;28;20039;-83
2023/12/11 05:55:38;;;;;;;1001.38;883.03;;;8.80;99.90;;;;;;5092876;28;20043;-82
2023/12/11 05:58:04;;;;;;;1072.68;937.05;;;8.80;99.90;;;;;;5081430;28;20032;-82
2023/12/11 06:00:29;;;;;;;1030.80;902.67;;;8.80;99.90;;;;;;5070113;28;20042;-81
2023/12/11 06:02:55;;;;;;;1123.13;939.35;;;8.80;99.90;;;;;;5058573;28;20447;-83
2023/12/11 06:05:21;;;;;;;965.00;864.58;;;8.70;99.90;;;;;;5055497;28;20037;-83
2023/12/11 06:07:46;;;;;;;1009.10;886.47;;;8.80;99.90;;;;;;5072091;28;20037;-83
2023/12/11 06:10:12;;;;;;;1042.80;917.00;;;8.70;99.90;;;;;;5053810;28;20043;-83
2023/12/11 06:12:38;;;;;;;1126.10;922.97;;;8.70;99.90;;;;;;5053467;28;20040;-83
2023/12/11 06:15:07;;;;;;;1020.67;897.20;;;8.70;99.90;;;;;;5073135;28;20437;-83
2023/12/11 06:17:33;;;;;;;990.00;881.88;;;9.10;99.90;;;;;;5071879;28;20050;-82
2023/12/11 06:19:59;;;;;;;1088.03;921.55;;;8.70;99.90;;;;;;5055623;28;20105;-82
2023/12/11 06:22:26;;;;;;;1086.72;923.47;;;8.70;99.90;;;;;;5069410;28;20338;-82
2023/12/11 06:24:51;;;;;;;1091.25;914.25;;;8.60;99.90;;;;;;5062477;28;20033;-82
2023/12/11 06:27:17;;;;;;;1163.35;945.45;;;8.70;99.90;;;;;;5078721;28;20044;-82
2023/12/11 06:29:46;;;;;;;970.42;868.28;;;8.70;99.90;;;;;;5063569;28;20037;-82
2023/12/11 06:32:11;;;;;;;1201.22;962.53;;;8.70;99.90;;;;;;5063920;28;20605;-82
2023/12/11 06:34:37;;;;;;;946.95;846.80;;;8.70;99.90;;;;;;5062156;28;20045;-82
2023/12/11 06:37:03;;;;;;;1080.45;929.80;;;8.70;99.90;;;;;;5059251;28;20040;-83
2023/12/11 06:39:29;;;;;;;976.42;870.95;;;8.70;99.90;;;;;;5076693;28;20068;-83
2023/12/11 06:41:55;;;;;;;1214.65;933.95;;;8.60;99.90;;;;;;5057909;28;20048;-82
2023/12/11 06:44:21;;;;;;;946.53;849.08;;;8.70;99.90;;;;;;5083381;28;20060;-83
2023/12/11 06:46:46;;;;;;;1116.28;917.03;;;8.70;99.90;;;;;;5062913;28;20041;-82
2023/12/11 06:49:12;;;;;;;1107.70;923.30;;;8.70;99.90;;;;;;5077884;28;20086;-82
2023/12/11 06:51:39;;;;;;;995.35;889.40;;;8.70;99.90;;;;;;5076069;28;20075;-82
2023/12/11 06:54:05;;;;;;;961.67;861.10;;;8.70;99.90;;;;;;5057536;28;20523;-82
2023/12/11 06:56:31;;;;;;;1015.65;898.85;;;8.70;99.90;;;;;;5074631;28;20037;-82
2023/12/11 06:58:57;;;;;;;1024.22;906.03;;;8.70;99.90;;;;;;5078757;28;20041;-83
2023/12/11 07:01:33;;;;;;;1016.47;904.55;;;8.70;99.90;;;;;;5082550;28;20051;-84
2023/12/11 07:04:00;;;;;;;1027.43;899.38;;;8.70;99.90;;;;;;5071981;28;20052;-82
2023/12/11 07:06:26;;;;;;;1082.18;920.05;;;8.70;99.90;;;;;;5078220;28;20028;-83
2023/12/11 07:08:51;;;;;;;976.10;871.17;;;8.70;99.90;;;;;;5058590;28;20033;-83
2023/12/11 07:11:17;;;;;;;986.65;882.85;;;8.70;99.90;;;;;;5076708;28;20115;-83
2023/12/11 07:13:43;;;;;;;977.15;872.17;;;8.60;99.90;;;;;;5054571;28;20052;-83
2023/12/11 07:16:09;;;;;;;1029.82;901.00;;;8.70;99.90;;;;;;5055223;28;20040;-83
2023/12/11 07:18:35;;;;;;;1105.65;922.70;;;8.70;99.90;;;;;;5080762;28;20041;-83
2023/12/11 07:21:02;;;;;;;929.83;834.53;;;8.70;99.90;;;;;;5060045;28;20100;-83
2023/12/11 07:23:28;;;;;;;1047.40;896.28;;;8.70;99.90;;;;;;5060480;28;20041;-83
2023/12/11 07:25:54;;;;;;;1041.60;901.83;;;8.60;99.90;;;;;;5040371;28;20032;-83
2023/12/11 07:28:21;;;;;;;1129.10;939.13;;;8.60;99.90;;;;;;5062406;28;20609;-82
2023/12/11 07:30:47;;;;;;;1001.50;895.20;;;8.70;99.90;;;;;;5057273;28;20036;-83
2023/12/11 07:33:12;;;;;;;1128.32;931.38;;;8.60;99.90;;;;;;5040887;28;20070;-83
2023/12/11 07:35:38;;;;;;;1144.85;922.97;;;8.60;99.90;;;;;;5058299;28;20067;-83
2023/12/11 07:38:03;;;;;;;1005.92;886.97;;;8.60;99.90;;;;;;5057023;28;20040;-83
2023/12/11 07:40:29;;;;;;;1021.40;897.55;;;8.60;99.90;;;;;;5070601;28;20439;-83
2023/12/11 07:42:55;;;;;;;1024.93;900.78;;;8.60;99.90;;;;;;5073740;28;20060;-83
2023/12/11 07:45:24;;;;;;;1040.43;904.78;;;8.60;99.90;;;;;;5067291;28;20187;-83
2023/12/11 07:47:50;;;;;;;1062.40;923.40;;;8.60;99.90;;;;;;5052863;28;20029;-83
2023/12/11 07:50:15;;;;;;;1084.18;917.72;;;8.60;99.90;;;;;;5076386;28;20135;-83
2023/12/11 07:52:41;;;;;;;1014.50;904.92;;;8.60;99.90;;;;;;5065752;28;20040;-83
2023/12/11 07:55:07;;;;;;;1178.38;950.42;;;8.60;99.90;;;;;;5075262;28;20043;-84
2023/12/11 07:57:33;;;;;;;1090.03;932.72;;;8.60;99.90;;;;;;5077948;28;20044;-83
2023/12/11 08:00:00;;;;;;;1038.60;913.88;;;8.60;99.90;;;;;;5063894;28;20043;-83
2023/12/11 08:02:26;;;;;;;1135.70;929.13;;;8.70;99.90;;;;;;5059908;28;20040;-83
2023/12/11 08:04:51;;;;;;;1047.13;919.53;;;8.60;99.90;;;;;;5056116;28;20051;-83
2023/12/11 08:07:18;;;;;;;1114.30;929.70;;;8.60;99.90;;;;;;5075292;28;20041;-83
2023/12/11 08:09:44;;;;;;;1218.57;947.83;;;8.70;99.90;;;;;;5057144;28;20064;-83
2023/12/11 08:12:10;;;;;;;1078.53;927.95;;;8.70;99.90;;;;;;5059874;28;20043;-83
2023/12/11 08:14:37;;;;;;;1146.45;944.92;;;8.70;99.90;;;;;;5059539;28;20037;-82
2023/12/11 08:17:03;;;;;;;1059.20;926.88;;;8.70;99.90;;;;;;5051490;28;20033;-84
2023/12/11 08:19:29;;;;;;;1279.57;970.63;;;8.70;99.90;;;;;;5058153;28;20559;-83
2023/12/11 08:21:54;;;;;;;1123.20;938.33;;;8.70;99.90;;;;;;5073907;28;20189;-83
2023/12/11 08:24:20;;;;;;;1172.65;951.55;;;8.70;99.90;;;;;;5057567;28;20501;-83
2023/12/11 08:26:46;;;;;;;1141.75;955.40;;;8.70;99.90;;;;;;5063599;28;20033;-81
2023/12/11 08:29:12;;;;;;;1195.32;952.95;;;8.70;99.90;;;;;;5076231;28;20045;-83
2023/12/11 08:31:38;;;;;;;1170.07;948.15;;;8.70;99.90;;;;;;5070256;28;20381;-81
2023/12/11 08:34:03;;;;;;;1191.28;949.80;;;8.70;99.90;;;;;;5071121;28;20056;-81
2023/12/11 08:36:29;;;;;;;1121.13;929.00;;;8.70;99.90;;;;;;5064134;28;20040;-81
2023/12/11 08:38:55;;;;;;;1279.47;977.03;;;8.70;99.90;;;;;;5071155;28;20100;-80
2023/12/11 08:41:20;;;;;;;1016.55;904.90;;;8.70;99.90;;;;;;5059442;28;20200;-82
2023/12/11 08:43:49;;;;;;;1062.30;930.90;;;8.70;99.90;;;;;;5051997;28;20036;-82
2023/12/11 08:46:15;;;;;;;1137.38;939.72;;;8.70;99.90;;;;;;5057176;28;20033;-81
2023/12/11 08:48:44;;;;;;;1356.80;995.00;;;8.70;99.90;;;;;;5072579;28;20029;-81
2023/12/11 08:51:10;;;;;;;1320.72;990.00;;;8.70;99.90;;;;;;5058960;28;20076;-83
2023/12/11 08:53:36;;;;;;;1163.70;936.28;;;8.70;99.90;;;;;;5052292;28;20037;-84
2023/12/11 08:56:02;;;;;;;1226.47;963.17;;;8.70;99.90;;;;;;5074656;28;20041;-83
2023/12/11 08:58:28;;;;;;;1028.70;903.22;;;8.80;99.90;;;;;;5058703;28;20202;-84
2023/12/11 09:00:54;;;;;;;1210.07;955.75;;;8.80;99.90;;;;;;5068728;28;20531;-84
2023/12/11 09:03:21;;;;;;;1282.25;982.78;;;8.80;99.90;;;;;;5072850;28;20036;-84
2023/12/11 09:05:46;;;;;;;1178.28;945.90;;;8.80;99.90;;;;;;5056691;28;20088;-84
2023/12/11 09:08:12;;;;;;;1227.90;965.55;;;8.80;99.90;;;;;;5073333;28;20041;-84
2023/12/11 09:10:38;;;;;;;1189.85;952.97;;;8.80;99.90;;;;;;5077385;28;20039;-84
2023/12/11 09:13:04;;;;;;;1148.20;939.88;;;8.80;99.90;;;;;;5091896;28;20044;-84
2023/12/11 09:15:30;;;;;;;1265.63;973.15;;;8.90;99.90;;;;;;5063736;28;20063;-84
2023/12/11 09:17:56;;;;;;;1188.45;957.03;;;8.90;99.90;;;;;;5059310;28;20049;-84
2023/12/11 09:20:22;;;;;;;1142.80;960.88;;;8.90;99.90;;;;;;5069049;28;20104;-84
2023/12/11 09:22:48;;;;;;;1292.60;984.58;;;8.90;99.90;;;;;;5073456;28;20067;-84
2023/12/11 09:25:14;;;;;;;1271.15;972.10;;;8.90;99.90;;;;;;5059547;28;20162;-84
2023/12/11 09:27:39;;;;;;;1109.80;948.90;;;9.00;99.90;;;;;;5063763;28;20037;-84
2023/12/11 09:30:09;;;;;;;1158.38;934.60;;;9.00;99.90;;;;;;5057269;28;20047;-84
2023/12/11 09:32:35;;;;;;;1305.55;975.40;;;9.00;99.90;;;;;;5065678;28;20428;-84
2023/12/11 09:35:01;;;;;;;1260.03;979.75;;;9.00;99.90;;;;;;5076991;28;20042;-84
2023/12/11 09:37:27;;;;;;;1275.93;971.03;;;9.10;99.90;;;;;;5060044;28;20128;-84
2023/12/11 09:39:52;;;;;;;1311.97;979.35;;;9.00;99.90;;;;;;5060571;28;20382;-84
2023/12/11 09:42:18;;;;;;;1147.85;947.15;;;9.00;99.90;;;;;;5063006;28;20114;-83
2023/12/11 09:44:46;;;;;;;1172.60;945.92;;;9.00;99.90;;;;;;5066314;28;20036;-84
2023/12/11 09:47:19;;;;;;;1272.65;969.25;;;9.10;99.90;;;;;;5067348;28;20049;-84
2023/12/11 09:49:48;;;;;;;1191.18;949.00;;;9.10;99.90;;;;;;5064153;28;20033;-84
2023/12/11 09:52:14;;;;;;;1228.07;957.60;;;9.10;99.90;;;;;;5063847;28;20274;-84
2023/12/11 09:54:40;;;;;;;1042.15;919.03;;;9.10;99.90;;;;;;5076742;28;20393;-84
2023/12/11 09:57:10;;;;;;;1066.25;910.30;;;9.10;99.90;;;;;;5084004;28;20031;-84
2023/12/11 09:59:37;;;;;;;1266.32;962.83;;;9.10;99.90;;;;;;5067899;28;20047;-84
2023/12/11 10:02:10;;;;;;;1143.28;945.50;;;9.10;99.90;;;;;;5080798;28;20033;-84
2023/12/11 10:04:36;;;;;;;1202.55;945.67;;;9.20;99.90;;;;;;5071434;28;20067;-84
2023/12/11 10:07:02;;;;;;;1038.57;909.15;;;9.20;99.90;;;;;;5062788;28;20220;-84
2023/12/11 10:09:35;;;;;;;1140.03;926.97;;;9.20;99.90;;;;;;5081272;28;20033;-84
2023/12/11 10:12:02;;;;;;;1147.70;942.88;;;9.30;99.90;;;;;;5056649;28;20047;-84
2023/12/11 10:14:30;;;;;;;1203.32;944.10;;;9.30;99.90;;;;;;5063148;28;20044;-84
2023/12/11 10:16:57;;;;;;;1121.13;934.05;;;9.40;99.90;;;;;;5058149;28;20037;-84
2023/12/11 10:19:34;;;;;;;1264.75;954.38;;;9.40;99.90;;;;;;5059855;28;20053;-86
2023/12/11 10:22:03;;;;;;;1140.57;915.85;;;9.40;99.90;;;;;;5060177;28;20041;-83
2023/12/11 10:24:29;;;;;;;1136.65;945.75;;;9.50;99.90;;;;;;5088325;28;20043;-84
2023/12/11 10:26:56;;;;;;;1100.65;937.20;;;9.50;99.90;;;;;;5079423;28;20029;-84
2023/12/11 10:29:23;;;;;;;1121.97;934.63;;;9.50;99.90;;;;;;5057504;28;20045;-84
2023/12/11 10:31:50;;;;;;;1192.47;937.72;;;9.40;99.90;;;;;;5060973;28;20097;-84
2023/12/11 10:34:16;;;;;;;1127.22;946.30;;;9.40;99.90;;;;;;5075371;28;20109;-84
2023/12/11 10:36:52;;;;;;;1110.30;912.90;;;9.40;99.90;;;;;;5058912;28;20040;-84
2023/12/11 10:39:22;;;;;;;1046.15;912.63;;;9.40;99.90;;;;;;5062428;28;20037;-83
2023/12/11 10:41:48;;;;;;;1059.30;929.38;;;9.50;99.90;;;;;;5058052;28;20072;-84
2023/12/11 10:44:24;;;;;;;1144.25;947.75;;;9.50;99.90;;;;;;5064638;28;20036;-83
2023/12/11 10:46:53;;;;;;;1112.03;936.33;;;9.50;99.90;;;;;;5065270;28;20512;-85
2023/12/11 10:49:23;;;;;;;1006.15;896.45;;;9.50;99.90;;;;;;5059926;28;20048;-84
2023/12/11 10:51:50;;;;;;;1126.78;945.85;;;9.50;99.90;;;;;;5060748;28;20044;-84
2023/12/11 10:54:16;;;;;;;1145.40;940.22;;;9.60;99.90;;;;;;5064625;28;20124;-84
2023/12/11 10:56:46;;;;;;;1021.63;906.03;;;9.70;99.90;;;;;;5060621;28;20032;-83
2023/12/11 10:59:13;;;;;;;1081.80;947.58;;;9.60;99.90;;;;;;5079632;28;20106;-83
2023/12/11 11:01:46;;;;;;;1034.78;922.03;;;10.30;99.90;;;;;;5078515;28;20036;-82
2023/12/11 11:04:13;;;;;;;997.47;888.25;;;10.20;99.90;;;;;;5057666;28;20124;-82
2023/12/11 11:06:55;;;;;;;988.95;886.03;;;9.60;99.90;;;;;;5076411;28;20036;-82
2023/12/11 11:09:33;;;;;;;1123.35;924.25;;;9.70;99.90;;;;;;5057798;28;20079;-83
2023/12/11 11:12:12;;;;;;;1019.60;901.25;;;10.30;99.90;;;;;;5082374;28;20043;-82
2023/12/11 11:14:49;;;;;;;1007.75;893.55;;;9.60;99.90;;;;;;5051347;28;20037;-81
2023/12/11 11:17:18;;;;;;;987.45;882.70;;;9.60;99.90;;;;;;5074485;28;20313;-83
2023/12/11 11:20:10;;;;;;;999.97;894.42;;;9.60;99.90;;;;;;5060956;28;20052;-83
2023/12/11 11:22:36;;;;;;;1008.15;898.15;;;9.50;99.90;;;;;;5056641;28;20044;-83
2023/12/11 11:25:31;;;;;;;1013.20;901.78;;;9.60;99.90;;;;;;5061121;28;20032;-83
2023/12/11 11:27:57;;;;;;;1064.60;925.10;;;9.50;99.90;;;;;;5037841;28;20053;-83
2023/12/11 11:30:44;;;;;;;1069.10;919.33;;;9.70;99.90;;;;;;5070987;28;20086;-83
2023/12/11 11:33:10;;;;;;;1158.15;943.20;;;9.60;99.90;;;;;;5059425;28;20037;-83
2023/12/11 11:35:45;;;;;;;1068.63;921.30;;;10.20;99.90;;;;;;5075780;28;20041;-83
2023/12/11 11:38:12;;;;;;;1001.30;888.58;;;9.60;99.90;;;;;;5060599;28;20071;-83
2023/12/11 11:40:37;;;;;;;974.65;873.40;;;9.70;99.90;;;;;;5059216;28;20206;-82
2023/12/11 11:43:10;;;;;;;975.35;878.72;;;9.60;99.90;;;;;;5074594;28;20028;-83
2023/12/11 11:45:40;;;;;;;1015.00;897.15;;;9.60;99.90;;;;;;5057627;28;20047;-83
2023/12/11 11:48:06;;;;;;;966.33;872.22;;;9.60;99.90;;;;;;5075807;28;20029;-83
2023/12/11 11:50:32;;;;;;;951.45;859.55;;;10.40;99.90;;;;;;5062162;28;20119;-82
2023/12/11 11:53:11;;;;;;;932.33;841.67;;;9.50;99.90;;;;;;5057607;28;20093;-82
2023/12/11 11:55:38;;;;;;;956.00;860.42;;;9.40;99.90;;;;;;5064028;28;20044;-83
2023/12/11 11:58:14;;;;;;;980.83;882.20;;;9.30;99.90;;;;;;5042763;28;20029;-83
2023/12/11 12:00:40;;;;;;;973.72;879.55;;;10.20;99.90;;;;;;5077437;28;20083;-83
2023/12/11 12:03:08;;;;;;;956.17;857.60;;;9.30;99.90;;;;;;5065335;28;20116;-83
2023/12/11 12:05:37;;;;;;;905.22;822.03;;;9.30;99.90;;;;;;5083816;28;20059;-82
2023/12/11 12:08:08;;;;;;;939.90;848.45;;;9.20;99.90;;;;;;5068509;28;20044;-82
2023/12/11 12:10:34;;;;;;;917.15;831.88;;;9.30;99.90;;;;;;5057370;28;20052;-82